sensor_id;sensor_type;location;lat;lon;timestamp;P1;durP1;ratioP1;P2;durP2;ratioP2
33022;SDS011;19390;51.460;5.710;2023-05-16T00:01:04;9.88;;;2.78;;
33022;SDS011;19390;51.460;5.710;2023-05-16T00:03:29;10.55;;;2.25;;
33022;SDS011;19390;51.460;5.710;2023-05-16T00:05:55;11.35;;;2.20;;
33022;SDS011;19390;51.460;5.710;2023-05-16T00:08:21;12.73;;;2.40;;
33022;SDS011;19390;51.460;5.710;2023-05-16T00:10:47;14.52;;;3.08;;
33022;SDS011;19390;51.460;5.710;2023-05-16T00:13:13;16.98;;;3.25;;
33022;SDS011;19390;51.460;5.710;2023-05-16T00:15:38;11.02;;;2.95;;
33022;SDS011;19390;51.460;5.710;2023-05-16T00:18:04;12.48;;;3.33;;
33022;SDS011;19390;51.460;5.710;2023-05-16T00:20:30;17.02;;;3.05;;
33022;SDS011;19390;51.460;5.710;2023-05-16T00:22:56;16.45;;;3.10;;
33022;SDS011;19390;51.460;5.710;2023-05-16T00:25:25;12.40;;;2.70;;
33022;SDS011;19390;51.460;5.710;2023-05-16T00:27:50;13.35;;;3.17;;
33022;SDS011;19390;51.460;5.710;2023-05-16T00:30:16;10.63;;;2.60;;
33022;SDS011;19390;51.460;5.710;2023-05-16T00:32:42;13.38;;;3.10;;
33022;SDS011;19390;51.460;5.710;2023-05-16T00:35:08;12.27;;;2.58;;
33022;SDS011;19390;51.460;5.710;2023-05-16T00:37:35;11.88;;;3.30;;
33022;SDS011;19390;51.460;5.710;2023-05-16T00:40:02;14.40;;;2.72;;
33022;SDS011;19390;51.460;5.710;2023-05-16T00:42:28;12.32;;;3.05;;
33022;SDS011;19390;51.460;5.710;2023-05-16T00:44:54;14.40;;;3.25;;
33022;SDS011;19390;51.460;5.710;2023-05-16T00:47:20;18.50;;;2.78;;
33022;SDS011;19390;51.460;5.710;2023-05-16T00:49:46;13.73;;;3.50;;
33022;SDS011;19390;51.460;5.710;2023-05-16T00:52:11;17.48;;;2.75;;
33022;SDS011;19390;51.460;5.710;2023-05-16T00:54:37;17.30;;;2.97;;
33022;SDS011;19390;51.460;5.710;2023-05-16T00:57:03;15.05;;;2.60;;
33022;SDS011;19390;51.460;5.710;2023-05-16T00:59:30;11.10;;;2.90;;
33022;SDS011;19390;51.460;5.710;2023-05-16T01:01:57;12.50;;;3.00;;
33022;SDS011;19390;51.460;5.710;2023-05-16T01:04:22;11.85;;;3.03;;
33022;SDS011;19390;51.460;5.710;2023-05-16T01:06:48;11.52;;;3.22;;
33022;SDS011;19390;51.460;5.710;2023-05-16T01:09:14;14.10;;;3.60;;
33022;SDS011;19390;51.460;5.710;2023-05-16T01:17:10;19.48;;;3.42;;
33022;SDS011;19390;51.460;5.710;2023-05-16T01:19:54;18.93;;;4.03;;
33022;SDS011;19390;51.460;5.710;2023-05-16T01:22:33;18.40;;;3.30;;
33022;SDS011;19390;51.460;5.710;2023-05-16T01:28:12;20.08;;;3.10;;
33022;SDS011;19390;51.460;5.710;2023-05-16T01:30:40;17.38;;;3.22;;
33022;SDS011;19390;51.460;5.710;2023-05-16T01:33:06;19.27;;;3.55;;
33022;SDS011;19390;51.460;5.710;2023-05-16T01:35:32;22.83;;;3.55;;
33022;SDS011;19390;51.460;5.710;2023-05-16T01:43:56;15.27;;;3.58;;
33022;SDS011;19390;51.460;5.710;2023-05-16T01:46:15;21.60;;;3.53;;
33022;SDS011;19390;51.460;5.710;2023-05-16T01:51:40;15.98;;;2.92;;
33022;SDS011;19390;51.460;5.710;2023-05-16T01:54:08;21.25;;;4.10;;
33022;SDS011;19390;51.460;5.710;2023-05-16T01:56:36;15.50;;;2.80;;
33022;SDS011;19390;51.460;5.710;2023-05-16T01:59:03;19.52;;;3.78;;
33022;SDS011;19390;51.460;5.710;2023-05-16T02:01:29;16.30;;;3.45;;
33022;SDS011;19390;51.460;5.710;2023-05-16T02:03:57;18.85;;;2.97;;
33022;SDS011;19390;51.460;5.710;2023-05-16T02:06:22;16.63;;;2.25;;
33022;SDS011;19390;51.460;5.710;2023-05-16T02:08:49;13.98;;;3.05;;
33022;SDS011;19390;51.460;5.710;2023-05-16T02:11:15;18.77;;;3.15;;
33022;SDS011;19390;51.460;5.710;2023-05-16T02:13:41;18.92;;;3.03;;
33022;SDS011;19390;51.460;5.710;2023-05-16T02:16:06;18.08;;;2.53;;
33022;SDS011;19390;51.460;5.710;2023-05-16T02:18:35;16.25;;;2.70;;
33022;SDS011;19390;51.460;5.710;2023-05-16T02:21:00;13.35;;;2.28;;
33022;SDS011;19390;51.460;5.710;2023-05-16T02:23:26;17.33;;;3.00;;
33022;SDS011;19390;51.460;5.710;2023-05-16T02:25:51;24.27;;;3.55;;
33022;SDS011;19390;51.460;5.710;2023-05-16T02:28:17;21.02;;;3.10;;
33022;SDS011;19390;51.460;5.710;2023-05-16T02:30:43;15.23;;;2.45;;
33022;SDS011;19390;51.460;5.710;2023-05-16T02:33:08;13.02;;;2.72;;
33022;SDS011;19390;51.460;5.710;2023-05-16T02:35:34;26.30;;;3.53;;
33022;SDS011;19390;51.460;5.710;2023-05-16T02:38:00;19.83;;;2.67;;
33022;SDS011;19390;51.460;5.710;2023-05-16T02:40:26;20.92;;;2.97;;
33022;SDS011;19390;51.460;5.710;2023-05-16T02:42:51;18.45;;;3.30;;
33022;SDS011;19390;51.460;5.710;2023-05-16T02:45:17;16.50;;;2.63;;
33022;SDS011;19390;51.460;5.710;2023-05-16T02:47:42;19.08;;;3.05;;
33022;SDS011;19390;51.460;5.710;2023-05-16T02:50:08;15.93;;;2.38;;
33022;SDS011;19390;51.460;5.710;2023-05-16T02:52:34;14.45;;;3.00;;
33022;SDS011;19390;51.460;5.710;2023-05-16T02:55:00;15.95;;;2.78;;
33022;SDS011;19390;51.460;5.710;2023-05-16T02:57:26;25.98;;;3.15;;
33022;SDS011;19390;51.460;5.710;2023-05-16T02:59:51;20.30;;;2.75;;
33022;SDS011;19390;51.460;5.710;2023-05-16T03:02:17;12.10;;;2.88;;
33022;SDS011;19390;51.460;5.710;2023-05-16T03:04:42;14.10;;;2.92;;
33022;SDS011;19390;51.460;5.710;2023-05-16T03:07:08;15.20;;;2.47;;
33022;SDS011;19390;51.460;5.710;2023-05-16T03:09:34;16.73;;;2.45;;
33022;SDS011;19390;51.460;5.710;2023-05-16T03:11:59;18.45;;;3.85;;
33022;SDS011;19390;51.460;5.710;2023-05-16T03:14:25;18.52;;;3.45;;
33022;SDS011;19390;51.460;5.710;2023-05-16T03:16:51;15.55;;;2.58;;
33022;SDS011;19390;51.460;5.710;2023-05-16T03:19:16;15.80;;;2.30;;
33022;SDS011;19390;51.460;5.710;2023-05-16T03:21:42;15.15;;;2.10;;
33022;SDS011;19390;51.460;5.710;2023-05-16T03:24:08;16.65;;;3.33;;
33022;SDS011;19390;51.460;5.710;2023-05-16T03:26:33;11.90;;;2.20;;
33022;SDS011;19390;51.460;5.710;2023-05-16T03:28:59;14.57;;;2.33;;
33022;SDS011;19390;51.460;5.710;2023-05-16T03:31:24;15.48;;;2.92;;
33022;SDS011;19390;51.460;5.710;2023-05-16T03:33:50;14.05;;;2.65;;
33022;SDS011;19390;51.460;5.710;2023-05-16T03:36:16;13.70;;;2.60;;
33022;SDS011;19390;51.460;5.710;2023-05-16T03:38:41;17.88;;;2.95;;
33022;SDS011;19390;51.460;5.710;2023-05-16T03:41:07;13.48;;;2.55;;
33022;SDS011;19390;51.460;5.710;2023-05-16T03:43:32;17.60;;;2.55;;
33022;SDS011;19390;51.460;5.710;2023-05-16T03:46:00;15.52;;;2.58;;
33022;SDS011;19390;51.460;5.710;2023-05-16T03:48:25;18.02;;;2.53;;
33022;SDS011;19390;51.460;5.710;2023-05-16T03:50:51;19.50;;;3.03;;
33022;SDS011;19390;51.460;5.710;2023-05-16T03:53:17;17.80;;;2.67;;
33022;SDS011;19390;51.460;5.710;2023-05-16T03:55:42;19.95;;;3.13;;
33022;SDS011;19390;51.460;5.710;2023-05-16T03:58:08;14.75;;;2.08;;
33022;SDS011;19390;51.460;5.710;2023-05-16T04:00:34;20.45;;;3.55;;
33022;SDS011;19390;51.460;5.710;2023-05-16T04:03:00;14.77;;;2.78;;
33022;SDS011;19390;51.460;5.710;2023-05-16T04:05:26;12.68;;;2.65;;
33022;SDS011;19390;51.460;5.710;2023-05-16T04:07:53;20.50;;;2.72;;
33022;SDS011;19390;51.460;5.710;2023-05-16T04:10:18;12.40;;;2.30;;
33022;SDS011;19390;51.460;5.710;2023-05-16T04:12:44;18.25;;;3.05;;
33022;SDS011;19390;51.460;5.710;2023-05-16T04:15:10;13.23;;;2.28;;
33022;SDS011;19390;51.460;5.710;2023-05-16T04:17:35;18.00;;;2.83;;
33022;SDS011;19390;51.460;5.710;2023-05-16T04:20:01;16.52;;;2.92;;
33022;SDS011;19390;51.460;5.710;2023-05-16T04:22:28;18.45;;;2.80;;
33022;SDS011;19390;51.460;5.710;2023-05-16T04:24:53;13.52;;;2.45;;
33022;SDS011;19390;51.460;5.710;2023-05-16T04:27:19;14.20;;;2.88;;
33022;SDS011;19390;51.460;5.710;2023-05-16T04:29:45;17.50;;;3.25;;
33022;SDS011;19390;51.460;5.710;2023-05-16T04:32:10;16.70;;;3.47;;
33022;SDS011;19390;51.460;5.710;2023-05-16T04:34:36;20.90;;;3.50;;
33022;SDS011;19390;51.460;5.710;2023-05-16T04:37:02;14.25;;;3.28;;
33022;SDS011;19390;51.460;5.710;2023-05-16T04:39:29;19.35;;;3.15;;
33022;SDS011;19390;51.460;5.710;2023-05-16T04:41:55;17.25;;;3.05;;
33022;SDS011;19390;51.460;5.710;2023-05-16T04:44:23;15.68;;;3.05;;
33022;SDS011;19390;51.460;5.710;2023-05-16T04:46:50;14.35;;;2.70;;
33022;SDS011;19390;51.460;5.710;2023-05-16T04:49:16;14.40;;;2.97;;
33022;SDS011;19390;51.460;5.710;2023-05-16T04:51:42;16.38;;;2.75;;
33022;SDS011;19390;51.460;5.710;2023-05-16T04:54:08;19.17;;;3.15;;
33022;SDS011;19390;51.460;5.710;2023-05-16T04:56:34;15.23;;;2.80;;
33022;SDS011;19390;51.460;5.710;2023-05-16T04:59:00;11.27;;;2.15;;
33022;SDS011;19390;51.460;5.710;2023-05-16T05:01:26;16.55;;;2.75;;
33022;SDS011;19390;51.460;5.710;2023-05-16T05:03:52;13.73;;;2.47;;
33022;SDS011;19390;51.460;5.710;2023-05-16T05:06:17;16.17;;;2.45;;
33022;SDS011;19390;51.460;5.710;2023-05-16T05:08:43;12.77;;;2.80;;
33022;SDS011;19390;51.460;5.710;2023-05-16T05:11:09;15.32;;;2.72;;
33022;SDS011;19390;51.460;5.710;2023-05-16T05:13:35;13.02;;;2.47;;
33022;SDS011;19390;51.460;5.710;2023-05-16T05:16:01;20.85;;;2.92;;
33022;SDS011;19390;51.460;5.710;2023-05-16T05:18:28;15.60;;;2.65;;
33022;SDS011;19390;51.460;5.710;2023-05-16T05:20:54;10.55;;;2.10;;
33022;SDS011;19390;51.460;5.710;2023-05-16T05:23:20;11.55;;;2.22;;
33022;SDS011;19390;51.460;5.710;2023-05-16T05:25:45;16.42;;;2.40;;
33022;SDS011;19390;51.460;5.710;2023-05-16T05:28:11;12.15;;;2.72;;
33022;SDS011;19390;51.460;5.710;2023-05-16T05:30:37;13.02;;;2.40;;
33022;SDS011;19390;51.460;5.710;2023-05-16T05:33:02;13.07;;;2.78;;
33022;SDS011;19390;51.460;5.710;2023-05-16T05:35:28;12.55;;;2.03;;
33022;SDS011;19390;51.460;5.710;2023-05-16T05:37:53;9.55;;;1.77;;
33022;SDS011;19390;51.460;5.710;2023-05-16T05:40:19;9.57;;;1.85;;
33022;SDS011;19390;51.460;5.710;2023-05-16T05:42:45;10.60;;;1.98;;
33022;SDS011;19390;51.460;5.710;2023-05-16T05:45:10;8.55;;;1.60;;
33022;SDS011;19390;51.460;5.710;2023-05-16T05:47:36;10.15;;;2.13;;
33022;SDS011;19390;51.460;5.710;2023-05-16T05:50:02;11.65;;;1.80;;
33022;SDS011;19390;51.460;5.710;2023-05-16T05:52:28;8.93;;;1.88;;
33022;SDS011;19390;51.460;5.710;2023-05-16T05:54:54;14.85;;;2.00;;
33022;SDS011;19390;51.460;5.710;2023-05-16T05:57:20;11.45;;;1.90;;
33022;SDS011;19390;51.460;5.710;2023-05-16T05:59:45;10.85;;;1.90;;
33022;SDS011;19390;51.460;5.710;2023-05-16T06:02:11;11.73;;;2.20;;
33022;SDS011;19390;51.460;5.710;2023-05-16T06:04:37;11.70;;;1.80;;
33022;SDS011;19390;51.460;5.710;2023-05-16T06:07:03;12.45;;;2.30;;
33022;SDS011;19390;51.460;5.710;2023-05-16T06:09:29;14.25;;;2.10;;
33022;SDS011;19390;51.460;5.710;2023-05-16T06:11:55;15.13;;;2.17;;
33022;SDS011;19390;51.460;5.710;2023-05-16T06:14:20;12.02;;;1.95;;
33022;SDS011;19390;51.460;5.710;2023-05-16T06:16:46;9.77;;;1.83;;
33022;SDS011;19390;51.460;5.710;2023-05-16T06:19:12;14.55;;;2.95;;
33022;SDS011;19390;51.460;5.710;2023-05-16T06:21:40;9.80;;;2.15;;
33022;SDS011;19390;51.460;5.710;2023-05-16T06:24:06;8.07;;;1.70;;
33022;SDS011;19390;51.460;5.710;2023-05-16T06:26:32;11.85;;;1.90;;
33022;SDS011;19390;51.460;5.710;2023-05-16T06:28:57;5.70;;;1.60;;
33022;SDS011;19390;51.460;5.710;2023-05-16T06:31:23;8.18;;;1.98;;
33022;SDS011;19390;51.460;5.710;2023-05-16T06:33:48;8.57;;;2.03;;
33022;SDS011;19390;51.460;5.710;2023-05-16T06:36:14;9.57;;;2.50;;
33022;SDS011;19390;51.460;5.710;2023-05-16T06:38:40;10.70;;;2.10;;
33022;SDS011;19390;51.460;5.710;2023-05-16T06:41:05;10.57;;;2.10;;
33022;SDS011;19390;51.460;5.710;2023-05-16T06:43:31;7.55;;;1.80;;
33022;SDS011;19390;51.460;5.710;2023-05-16T06:45:57;7.22;;;1.88;;
33022;SDS011;19390;51.460;5.710;2023-05-16T06:48:22;10.57;;;2.17;;
33022;SDS011;19390;51.460;5.710;2023-05-16T06:50:48;6.28;;;1.30;;
33022;SDS011;19390;51.460;5.710;2023-05-16T06:53:16;9.88;;;1.67;;
33022;SDS011;19390;51.460;5.710;2023-05-16T06:55:42;11.60;;;1.75;;
33022;SDS011;19390;51.460;5.710;2023-05-16T06:58:08;6.68;;;1.45;;
33022;SDS011;19390;51.460;5.710;2023-05-16T07:00:34;10.45;;;1.60;;
33022;SDS011;19390;51.460;5.710;2023-05-16T07:03:00;11.27;;;1.90;;
33022;SDS011;19390;51.460;5.710;2023-05-16T07:05:27;8.57;;;1.52;;
33022;SDS011;19390;51.460;5.710;2023-05-16T07:07:53;4.55;;;1.27;;
33022;SDS011;19390;51.460;5.710;2023-05-16T07:10:19;6.30;;;1.52;;
33022;SDS011;19390;51.460;5.710;2023-05-16T07:12:45;8.13;;;1.45;;
33022;SDS011;19390;51.460;5.710;2023-05-16T07:15:11;4.85;;;1.42;;
33022;SDS011;19390;51.460;5.710;2023-05-16T07:17:37;8.77;;;1.80;;
33022;SDS011;19390;51.460;5.710;2023-05-16T07:20:02;11.88;;;1.73;;
33022;SDS011;19390;51.460;5.710;2023-05-16T07:22:29;9.02;;;1.80;;
33022;SDS011;19390;51.460;5.710;2023-05-16T07:24:54;18.00;;;2.08;;
33022;SDS011;19390;51.460;5.710;2023-05-16T07:27:24;8.63;;;1.95;;
33022;SDS011;19390;51.460;5.710;2023-05-16T07:29:50;7.70;;;1.48;;
33022;SDS011;19390;51.460;5.710;2023-05-16T07:32:16;6.82;;;1.55;;
33022;SDS011;19390;51.460;5.710;2023-05-16T07:34:42;7.25;;;1.05;;
33022;SDS011;19390;51.460;5.710;2023-05-16T07:37:07;9.13;;;1.40;;
33022;SDS011;19390;51.460;5.710;2023-05-16T07:39:37;5.18;;;1.40;;
33022;SDS011;19390;51.460;5.710;2023-05-16T07:42:06;10.10;;;1.73;;
33022;SDS011;19390;51.460;5.710;2023-05-16T07:44:32;9.35;;;1.65;;
33022;SDS011;19390;51.460;5.710;2023-05-16T07:46:58;7.03;;;1.52;;
33022;SDS011;19390;51.460;5.710;2023-05-16T07:49:23;9.07;;;1.38;;
33022;SDS011;19390;51.460;5.710;2023-05-16T07:51:49;9.95;;;1.65;;
33022;SDS011;19390;51.460;5.710;2023-05-16T07:54:15;9.57;;;1.50;;
33022;SDS011;19390;51.460;5.710;2023-05-16T07:56:40;6.65;;;1.33;;
33022;SDS011;19390;51.460;5.710;2023-05-16T07:59:06;6.93;;;1.00;;
33022;SDS011;19390;51.460;5.710;2023-05-16T08:01:31;8.68;;;1.40;;
33022;SDS011;19390;51.460;5.710;2023-05-16T08:03:57;6.30;;;1.08;;
33022;SDS011;19390;51.460;5.710;2023-05-16T08:06:23;6.78;;;1.10;;
33022;SDS011;19390;51.460;5.710;2023-05-16T08:08:49;10.65;;;1.30;;
33022;SDS011;19390;51.460;5.710;2023-05-16T08:11:14;3.17;;;1.08;;
33022;SDS011;19390;51.460;5.710;2023-05-16T08:13:40;5.85;;;1.50;;
33022;SDS011;19390;51.460;5.710;2023-05-16T08:16:06;9.40;;;1.48;;
33022;SDS011;19390;51.460;5.710;2023-05-16T08:18:31;7.20;;;1.38;;
33022;SDS011;19390;51.460;5.710;2023-05-16T08:20:57;6.80;;;1.25;;
33022;SDS011;19390;51.460;5.710;2023-05-16T08:23:23;4.25;;;1.00;;
33022;SDS011;19390;51.460;5.710;2023-05-16T08:25:48;7.57;;;1.33;;
33022;SDS011;19390;51.460;5.710;2023-05-16T08:28:14;5.43;;;1.27;;
33022;SDS011;19390;51.460;5.710;2023-05-16T08:30:40;4.30;;;1.10;;
33022;SDS011;19390;51.460;5.710;2023-05-16T08:33:06;4.93;;;1.02;;
33022;SDS011;19390;51.460;5.710;2023-05-16T08:35:31;6.55;;;1.35;;
33022;SDS011;19390;51.460;5.710;2023-05-16T08:37:59;2.92;;;0.88;;
33022;SDS011;19390;51.460;5.710;2023-05-16T10:11:05;2.30;;;1.02;;
33022;SDS011;19390;51.460;5.710;2023-05-16T10:13:32;7.55;;;1.40;;
33022;SDS011;19390;51.460;5.710;2023-05-16T10:15:59;4.07;;;1.23;;
33022;SDS011;19390;51.460;5.710;2023-05-16T10:18:31;2.97;;;0.93;;
33022;SDS011;19390;51.460;5.710;2023-05-16T10:21:03;5.93;;;1.10;;
33022;SDS011;19390;51.460;5.710;2023-05-16T10:23:34;6.70;;;1.25;;
33022;SDS011;19390;51.460;5.710;2023-05-16T10:26:02;6.68;;;1.10;;
33022;SDS011;19390;51.460;5.710;2023-05-16T10:28:29;8.00;;;1.38;;
33022;SDS011;19390;51.460;5.710;2023-05-16T10:30:56;6.43;;;1.13;;
33022;SDS011;19390;51.460;5.710;2023-05-16T10:33:23;4.85;;;0.88;;
33022;SDS011;19390;51.460;5.710;2023-05-16T10:35:48;8.73;;;1.00;;
33022;SDS011;19390;51.460;5.710;2023-05-16T10:38:15;2.35;;;0.77;;
33022;SDS011;19390;51.460;5.710;2023-05-16T10:40:42;3.80;;;0.80;;
33022;SDS011;19390;51.460;5.710;2023-05-16T10:43:08;4.45;;;0.90;;
33022;SDS011;19390;51.460;5.710;2023-05-16T10:45:38;2.85;;;0.60;;
33022;SDS011;19390;51.460;5.710;2023-05-16T10:48:06;2.60;;;0.95;;
33022;SDS011;19390;51.460;5.710;2023-05-16T10:50:37;3.28;;;0.80;;
33022;SDS011;19390;51.460;5.710;2023-05-16T10:55:38;3.40;;;1.00;;
33022;SDS011;19390;51.460;5.710;2023-05-16T10:58:04;4.68;;;1.15;;
33022;SDS011;19390;51.460;5.710;2023-05-16T11:00:30;3.42;;;0.88;;
33022;SDS011;19390;51.460;5.710;2023-05-16T11:03:04;4.70;;;0.85;;
33022;SDS011;19390;51.460;5.710;2023-05-16T11:05:30;6.13;;;1.35;;
33022;SDS011;19390;51.460;5.710;2023-05-16T11:08:06;4.45;;;1.00;;
33022;SDS011;19390;51.460;5.710;2023-05-16T11:10:32;3.08;;;0.70;;
33022;SDS011;19390;51.460;5.710;2023-05-16T11:13:02;3.33;;;1.13;;
33022;SDS011;19390;51.460;5.710;2023-05-16T11:15:32;5.95;;;0.77;;
33022;SDS011;19390;51.460;5.710;2023-05-16T11:18:16;2.97;;;0.60;;
33022;SDS011;19390;51.460;5.710;2023-05-16T11:20:42;2.30;;;0.80;;
33022;SDS011;19390;51.460;5.710;2023-05-16T11:25:44;3.95;;;0.93;;
33022;SDS011;19390;51.460;5.710;2023-05-16T11:28:11;3.83;;;0.80;;
33022;SDS011;19390;51.460;5.710;2023-05-16T11:30:46;4.07;;;1.10;;
33022;SDS011;19390;51.460;5.710;2023-05-16T11:33:13;2.92;;;0.80;;
33022;SDS011;19390;51.460;5.710;2023-05-16T11:35:40;2.67;;;0.80;;
33022;SDS011;19390;51.460;5.710;2023-05-16T11:38:13;3.15;;;0.68;;
33022;SDS011;19390;51.460;5.710;2023-05-16T11:40:41;2.15;;;0.63;;
33022;SDS011;19390;51.460;5.710;2023-05-16T11:43:08;4.18;;;1.00;;
33022;SDS011;19390;51.460;5.710;2023-05-16T11:45:34;2.63;;;0.80;;
33022;SDS011;19390;51.460;5.710;2023-05-16T11:48:01;4.25;;;1.30;;
33022;SDS011;19390;51.460;5.710;2023-05-16T11:50:32;5.68;;;1.25;;
33022;SDS011;19390;51.460;5.710;2023-05-16T11:52:59;3.97;;;0.90;;
33022;SDS011;19390;51.460;5.710;2023-05-16T11:55:25;5.45;;;0.80;;
33022;SDS011;19390;51.460;5.710;2023-05-16T11:57:54;4.60;;;1.35;;
33022;SDS011;19390;51.460;5.710;2023-05-16T12:00:24;10.15;;;1.50;;
33022;SDS011;19390;51.460;5.710;2023-05-16T12:02:51;5.68;;;1.05;;
33022;SDS011;19390;51.460;5.710;2023-05-16T12:05:19;3.53;;;1.10;;
33022;SDS011;19390;51.460;5.710;2023-05-16T12:07:49;6.78;;;1.98;;
33022;SDS011;19390;51.460;5.710;2023-05-16T12:10:18;4.90;;;1.00;;
33022;SDS011;19390;51.460;5.710;2023-05-16T12:12:44;6.13;;;1.33;;
33022;SDS011;19390;51.460;5.710;2023-05-16T12:15:12;2.17;;;0.95;;
33022;SDS011;19390;51.460;5.710;2023-05-16T12:17:39;4.40;;;1.40;;
33022;SDS011;19390;51.460;5.710;2023-05-16T12:20:05;4.88;;;1.20;;
33022;SDS011;19390;51.460;5.710;2023-05-16T12:22:39;4.07;;;2.33;;
33022;SDS011;19390;51.460;5.710;2023-05-16T12:27:54;6.90;;;3.35;;
33022;SDS011;19390;51.460;5.710;2023-05-16T12:30:26;5.32;;;1.15;;
33022;SDS011;19390;51.460;5.710;2023-05-16T12:32:56;8.43;;;2.85;;
33022;SDS011;19390;51.460;5.710;2023-05-16T12:35:29;15.30;;;6.68;;
33022;SDS011;19390;51.460;5.710;2023-05-16T12:37:56;10.10;;;5.43;;
33022;SDS011;19390;51.460;5.710;2023-05-16T12:40:21;7.43;;;2.75;;
33022;SDS011;19390;51.460;5.710;2023-05-16T12:42:50;7.30;;;1.48;;
33022;SDS011;19390;51.460;5.710;2023-05-16T12:45:17;10.35;;;4.15;;
33022;SDS011;19390;51.460;5.710;2023-05-16T12:47:44;11.75;;;3.25;;
33022;SDS011;19390;51.460;5.710;2023-05-16T12:50:13;7.68;;;3.08;;
33022;SDS011;19390;51.460;5.710;2023-05-16T12:52:51;10.30;;;4.00;;
33022;SDS011;19390;51.460;5.710;2023-05-16T12:55:20;3.83;;;1.48;;
33022;SDS011;19390;51.460;5.710;2023-05-16T12:57:46;6.97;;;1.63;;
33022;SDS011;19390;51.460;5.710;2023-05-16T13:00:13;4.63;;;1.42;;
33022;SDS011;19390;51.460;5.710;2023-05-16T13:02:40;9.30;;;5.10;;
33022;SDS011;19390;51.460;5.710;2023-05-16T13:05:06;14.50;;;5.97;;
33022;SDS011;19390;51.460;5.710;2023-05-16T13:07:33;6.55;;;2.97;;
33022;SDS011;19390;51.460;5.710;2023-05-16T13:09:58;5.95;;;1.50;;
33022;SDS011;19390;51.460;5.710;2023-05-16T13:12:24;3.78;;;1.20;;
33022;SDS011;19390;51.460;5.710;2023-05-16T13:14:54;5.65;;;1.58;;
33022;SDS011;19390;51.460;5.710;2023-05-16T13:17:20;8.15;;;3.03;;
33022;SDS011;19390;51.460;5.710;2023-05-16T13:19:46;7.60;;;2.45;;
33022;SDS011;19390;51.460;5.710;2023-05-16T13:22:11;15.43;;;7.75;;
33022;SDS011;19390;51.460;5.710;2023-05-16T13:24:37;12.90;;;4.03;;
33022;SDS011;19390;51.460;5.710;2023-05-16T13:27:02;8.90;;;4.38;;
33022;SDS011;19390;51.460;5.710;2023-05-16T13:29:28;9.77;;;1.98;;
33022;SDS011;19390;51.460;5.710;2023-05-16T13:31:53;9.10;;;3.92;;
33022;SDS011;19390;51.460;5.710;2023-05-16T13:34:19;7.82;;;2.83;;
33022;SDS011;19390;51.460;5.710;2023-05-16T13:36:44;4.60;;;1.55;;
33022;SDS011;19390;51.460;5.710;2023-05-16T13:39:11;5.63;;;2.90;;
33022;SDS011;19390;51.460;5.710;2023-05-16T13:41:37;7.75;;;2.55;;
33022;SDS011;19390;51.460;5.710;2023-05-16T13:44:04;8.05;;;3.38;;
33022;SDS011;19390;51.460;5.710;2023-05-16T13:46:30;8.05;;;2.33;;
33022;SDS011;19390;51.460;5.710;2023-05-16T13:48:56;5.78;;;1.45;;
33022;SDS011;19390;51.460;5.710;2023-05-16T13:51:21;9.13;;;1.60;;
33022;SDS011;19390;51.460;5.710;2023-05-16T13:53:47;5.88;;;1.35;;
33022;SDS011;19390;51.460;5.710;2023-05-16T13:56:13;6.60;;;1.98;;
33022;SDS011;19390;51.460;5.710;2023-05-16T13:58:38;5.78;;;2.30;;
33022;SDS011;19390;51.460;5.710;2023-05-16T14:01:04;4.00;;;1.33;;
33022;SDS011;19390;51.460;5.710;2023-05-16T14:03:30;6.22;;;1.13;;
33022;SDS011;19390;51.460;5.710;2023-05-16T14:05:56;9.05;;;2.03;;
33022;SDS011;19390;51.460;5.710;2023-05-16T14:08:21;7.63;;;2.30;;
33022;SDS011;19390;51.460;5.710;2023-05-16T14:10:47;5.07;;;1.25;;
33022;SDS011;19390;51.460;5.710;2023-05-16T14:13:13;6.10;;;1.40;;
33022;SDS011;19390;51.460;5.710;2023-05-16T14:15:38;4.47;;;1.20;;
33022;SDS011;19390;51.460;5.710;2023-05-16T14:18:04;5.72;;;1.35;;
33022;SDS011;19390;51.460;5.710;2023-05-16T14:20:30;4.88;;;1.27;;
33022;SDS011;19390;51.460;5.710;2023-05-16T14:22:55;5.90;;;1.40;;
33022;SDS011;19390;51.460;5.710;2023-05-16T14:25:21;5.93;;;1.50;;
33022;SDS011;19390;51.460;5.710;2023-05-16T14:27:47;7.88;;;1.42;;
33022;SDS011;19390;51.460;5.710;2023-05-16T14:30:14;7.38;;;1.20;;
33022;SDS011;19390;51.460;5.710;2023-05-16T14:32:40;5.47;;;1.67;;
33022;SDS011;19390;51.460;5.710;2023-05-16T14:35:06;8.75;;;1.48;;
33022;SDS011;19390;51.460;5.710;2023-05-16T14:37:33;6.30;;;1.42;;
33022;SDS011;19390;51.460;5.710;2023-05-16T14:39:59;6.47;;;1.48;;
33022;SDS011;19390;51.460;5.710;2023-05-16T14:42:25;8.75;;;1.80;;
33022;SDS011;19390;51.460;5.710;2023-05-16T14:44:50;7.32;;;1.60;;
33022;SDS011;19390;51.460;5.710;2023-05-16T14:47:16;3.72;;;1.23;;
33022;SDS011;19390;51.460;5.710;2023-05-16T14:49:41;7.47;;;1.65;;
33022;SDS011;19390;51.460;5.710;2023-05-16T14:52:07;6.43;;;1.40;;
33022;SDS011;19390;51.460;5.710;2023-05-16T14:54:33;6.00;;;1.50;;
33022;SDS011;19390;51.460;5.710;2023-05-16T14:56:59;5.95;;;1.42;;
33022;SDS011;19390;51.460;5.710;2023-05-16T14:59:25;7.00;;;1.85;;
33022;SDS011;19390;51.460;5.710;2023-05-16T15:01:51;8.10;;;1.45;;
33022;SDS011;19390;51.460;5.710;2023-05-16T15:04:16;6.97;;;1.50;;
33022;SDS011;19390;51.460;5.710;2023-05-16T15:06:42;7.78;;;1.65;;
33022;SDS011;19390;51.460;5.710;2023-05-16T15:09:08;4.05;;;1.40;;
33022;SDS011;19390;51.460;5.710;2023-05-16T15:11:33;6.70;;;1.35;;
33022;SDS011;19390;51.460;5.710;2023-05-16T15:13:59;6.28;;;1.42;;
33022;SDS011;19390;51.460;5.710;2023-05-16T15:16:25;5.65;;;1.30;;
33022;SDS011;19390;51.460;5.710;2023-05-16T15:18:51;7.55;;;1.60;;
33022;SDS011;19390;51.460;5.710;2023-05-16T15:21:17;6.65;;;1.40;;
33022;SDS011;19390;51.460;5.710;2023-05-16T15:23:42;7.03;;;1.92;;
33022;SDS011;19390;51.460;5.710;2023-05-16T15:26:09;7.15;;;1.75;;
33022;SDS011;19390;51.460;5.710;2023-05-16T15:28:35;5.75;;;1.73;;
33022;SDS011;19390;51.460;5.710;2023-05-16T15:31:01;5.47;;;1.50;;
33022;SDS011;19390;51.460;5.710;2023-05-16T15:33:28;5.93;;;1.55;;
33022;SDS011;19390;51.460;5.710;2023-05-16T15:35:53;7.10;;;3.20;;
33022;SDS011;19390;51.460;5.710;2023-05-16T15:38:19;9.02;;;1.80;;
33022;SDS011;19390;51.460;5.710;2023-05-16T15:40:45;4.55;;;1.60;;
33022;SDS011;19390;51.460;5.710;2023-05-16T15:43:11;9.30;;;1.35;;
33022;SDS011;19390;51.460;5.710;2023-05-16T15:45:36;8.73;;;1.30;;
33022;SDS011;19390;51.460;5.710;2023-05-16T15:48:02;5.10;;;1.52;;
33022;SDS011;19390;51.460;5.710;2023-05-16T15:50:28;7.10;;;1.05;;
33022;SDS011;19390;51.460;5.710;2023-05-16T15:52:53;4.68;;;1.30;;
33022;SDS011;19390;51.460;5.710;2023-05-16T15:55:22;4.90;;;1.58;;
33022;SDS011;19390;51.460;5.710;2023-05-16T15:57:47;6.45;;;1.42;;
33022;SDS011;19390;51.460;5.710;2023-05-16T16:00:13;7.03;;;1.20;;
33022;SDS011;19390;51.460;5.710;2023-05-16T16:02:39;7.97;;;1.17;;
33022;SDS011;19390;51.460;5.710;2023-05-16T16:05:06;6.95;;;1.40;;
33022;SDS011;19390;51.460;5.710;2023-05-16T16:07:32;7.28;;;1.58;;
33022;SDS011;19390;51.460;5.710;2023-05-16T16:09:57;6.60;;;2.55;;
33022;SDS011;19390;51.460;5.710;2023-05-16T16:12:23;9.05;;;2.35;;
33022;SDS011;19390;51.460;5.710;2023-05-16T16:14:49;4.00;;;1.20;;
33022;SDS011;19390;51.460;5.710;2023-05-16T16:17:15;5.88;;;1.35;;
33022;SDS011;19390;51.460;5.710;2023-05-16T16:19:41;5.70;;;1.40;;
33022;SDS011;19390;51.460;5.710;2023-05-16T16:22:07;5.35;;;1.08;;
33022;SDS011;19390;51.460;5.710;2023-05-16T16:24:32;6.30;;;1.25;;
33022;SDS011;19390;51.460;5.710;2023-05-16T16:26:58;6.57;;;1.73;;
33022;SDS011;19390;51.460;5.710;2023-05-16T16:29:24;5.95;;;1.10;;
33022;SDS011;19390;51.460;5.710;2023-05-16T16:31:50;7.07;;;1.20;;